Tuesday, June 30, 2015, 4:21 PM CDT
Back to Local

KHDC, Hammond, Hammond Municipal Airport

Location: Hammond, LA, United States Lat: 30.521
Local Time: 4:21 PM CDT (21:21 GMT) Lon: -90.418
Time Zone: US/Central Elev: 42 ft

Show me the last for .
Show Coded

Time T Td Feel RH Dir Speed Gust Alt SLP Vis Weather Sky Remarks
2015-06-30 15:55 77 72 81 83 300° 20 25 30.10 - 10 TS SCT014 SCT026 BKN050 None
2015-06-30 15:35 77 70 81 78 - Calm - 30.06 - 10 CLR None
2015-06-30 15:15 79 70 83 74 210° 3 - 30.07 - 10 VCTS CLR None
2015-06-30 14:55 79 70 83 74 130° 5 - 30.05 - 10 CLR None
2015-06-30 14:35 79 70 83 74 130° 6 - 30.07 - 10 VCTS SCT028 None
2015-06-30 14:15 81 73 86 78 160° 5 - 30.07 - 10 VCTSRA -SCT028 None
2015-06-30 13:55 81 72 85 74 - Calm - 30.07 - 10 TS SCT014 SCT020 SCT025 1-hr Precip Total: 0.08"
2015-06-30 13:35 84 73 91 70 220° 8 - 30.07 - 4 +TSRA SCT016 SCT025 BKN055 1-hr Precip Total: 0.07"
2015-06-30 13:15 88 72 95 58 200° 7 - 30.08 - 10 VCTS CLR None
2015-06-30 12:55 88 72 95 58 270° 5 - 30.08 - 10 SCT037 SCT070 SCT100 None
2015-06-30 12:35 91 72 100 52 270° 7 - 30.09 - 10 SCT031 SCT038 None
2015-06-30 12:15 90 73 99 59 300° 6 - 30.10 - 10 SCT028 SCT034 BKN065 None
2015-06-30 11:55 90 73 99 59 270° 5 - 30.10 - 10 SCT026 SCT035 SCT046 None
2015-06-30 11:35 90 72 97 55 280° 10 - 30.10 - 10 SCT027 SCT035 BKN044 None
2015-06-30 11:15 88 73 96 62 260° 10 - 30.10 - 10 SCT028 BKN035 None
2015-06-30 10:55 88 73 96 62 260° 10 - 30.09 - 10 SCT026 BKN033 None
2015-06-30 10:35 86 73 94 66 260° 9 - 30.09 - 10 SCT024 SCT029 SCT033 None
2015-06-30 10:15 86 73 94 66 270° 6 - 30.10 - 10 SCT021 None
2015-06-30 09:55 84 73 91 70 260° 3 - 30.10 - 10 CLR None
2015-06-30 09:35 82 72 88 69 180° 3 - 30.10 - 10 CLR None
2015-06-30 09:15 81 70 85 69 - Calm - 30.11 - 10 CLR None
2015-06-30 08:35 77 70 81 78 - Calm - 30.10 - 10 CLR None
2015-06-30 08:15 77 68 80 73 - Calm - 30.09 - 10 CLR None
2015-06-30 07:55 77 68 80 73 - Calm - 30.08 - 10 CLR None
2015-06-30 07:35 73 68 77 83 160° 3 - 30.08 - 10 CLR None
2015-06-30 07:15 73 66 77 78 - Calm - 30.08 - 10 CLR None
2015-06-30 06:55 73 66 77 78 - Calm - 30.08 - 10 CLR None
2015-06-30 06:35 72 66 76 83 - Calm - 30.08 - 10 SCT012 None
2015-06-30 06:15 72 66 76 83 - Calm - 30.08 - 10 CLR None
2015-06-30 05:55 72 66 76 83 - Calm - 30.07 - 10 CLR None
2015-06-30 05:35 72 66 76 83 - Calm - 30.06 - 10 CLR None
2015-06-30 05:15 73 66 77 78 360° 5 - 30.05 - 10 CLR None
2015-06-30 04:55 75 66 78 73 - Calm - 30.04 - 10 CLR None
2015-06-30 04:35 75 66 78 73 230° 3 - 30.01 - 10 CLR None
2015-06-30 04:15 75 66 78 73 240° 3 - 30.01 - 10 CLR None
2015-06-30 03:55 75 64 78 69 260° 3 - 30.00 - 10 CLR None
2015-06-30 03:35 73 64 77 73 230° 8 - 30.00 - 10 CLR None
2015-06-30 03:15 73 64 77 73 230° 7 - 30.01 - 10 CLR None
2015-06-30 02:35 75 64 78 69 230° 9 - 30.02 - 10 CLR None
2015-06-30 02:15 75 64 78 69 260° 7 - 30.04 - 10 CLR None
2015-06-30 01:50 73 64 77 73 280° 8 - 30.06 - 10 CLR None
2015-06-30 01:35 73 66 77 78 290° 8 - 30.06 - 10 CLR None
2015-06-30 01:15 73 66 77 78 260° 6 - 30.05 - 10 CLR None
2015-06-30 00:35 73 66 77 78 240° 7 - 30.04 - 10 CLR None
2015-06-30 00:15 73 66 77 78 250° 5 - 30.05 - 10 CLR None
2015-06-29 23:55 75 66 78 73 280° 8 - 30.07 - 10 CLR None
2015-06-29 23:35 77 66 80 69 310° 6 - 30.07 - 10 SCT017 SCT027 BKN070 None
2015-06-29 23:15 79 68 82 69 330° 9 17 30.07 - 10 VCTS SCT018 BKN027 BKN035 None
2015-06-29 22:55 81 73 86 78 260° 6 - 30.05 - 10 CLR None
2015-06-29 22:35 81 73 86 78 250° 6 - 30.04 - 10 CLR None
2015-06-29 22:15 82 73 89 74 250° 5 - 30.03 - 10 CLR None
2015-06-29 21:55 82 73 89 74 230° 7 - 30.02 - 10 CLR None
2015-06-29 21:35 82 73 89 74 230° 7 - 30.02 - 10 CLR None
2015-06-29 21:15 82 73 89 74 240° 5 - 30.02 - 10 CLR None
2015-06-29 20:55 82 73 89 74 - Calm - 30.01 - 10 CLR None
2015-06-29 20:35 82 73 89 74 - Calm - 30.00 - 10 CLR None
2015-06-29 20:15 84 73 91 70 220° 5 - 30.00 - 10 TS CLR None
2015-06-29 19:35 86 72 92 62 250° 3 - 30.01 - 10 CLR None
2015-06-29 19:15 86 72 92 62 210° 5 - 30.00 - 10 CLR None
2015-06-29 18:55 88 72 95 58 220° 6 - 30.00 - 10 CLR None
2015-06-29 18:35 88 72 95 58 200° 7 - 30.00 - 10 CLR None
2015-06-29 18:15 90 70 96 52 250° 6 - 30.00 - 10 CLR None
2015-06-29 17:55 90 72 97 55 230° 6 - 30.00 - 10 CLR None
2015-06-29 17:35 90 73 99 59 - Calm - 30.00 - 10 CLR None
2015-06-29 17:15 88 73 96 62 - Calm - 30.02 - 10 VCTS SCT042 None
2015-06-29 16:55 84 73 91 70 300° 3 - 30.01 - 10 SCT042 None
2015-06-29 16:35 84 73 91 70 - Calm - 30.02 - 10 CLR None

Support USWX by starting your Amazon purchase here.